sensor_id;sensor_type;location;lat;lon;timestamp;temperature;humidity
24772;DHT22;12870;52.274;9.754;2023-03-02T00:01:28;-0.90;99.90
24772;DHT22;12870;52.274;9.754;2023-03-02T00:03:56;-0.90;99.90
24772;DHT22;12870;52.274;9.754;2023-03-02T00:06:24;-0.90;99.90
24772;DHT22;12870;52.274;9.754;2023-03-02T00:08:50;-0.90;99.90
24772;DHT22;12870;52.274;9.754;2023-03-02T00:11:16;-1.00;99.90
24772;DHT22;12870;52.274;9.754;2023-03-02T00:13:42;-1.00;99.90
24772;DHT22;12870;52.274;9.754;2023-03-02T00:16:08;-1.00;99.90
24772;DHT22;12870;52.274;9.754;2023-03-02T00:18:34;-1.00;99.90
24772;DHT22;12870;52.274;9.754;2023-03-02T00:21:00;-1.00;99.90
24772;DHT22;12870;52.274;9.754;2023-03-02T00:23:26;-1.10;99.90
24772;DHT22;12870;52.274;9.754;2023-03-02T00:25:51;-1.10;99.90
24772;DHT22;12870;52.274;9.754;2023-03-02T00:28:17;-1.10;99.90
24772;DHT22;12870;52.274;9.754;2023-03-02T00:30:43;-1.10;99.90
24772;DHT22;12870;52.274;9.754;2023-03-02T00:33:09;-1.10;99.90
24772;DHT22;12870;52.274;9.754;2023-03-02T00:35:39;-1.20;99.90
24772;DHT22;12870;52.274;9.754;2023-03-02T00:38:06;-1.20;99.90
24772;DHT22;12870;52.274;9.754;2023-03-02T00:40:33;-1.20;99.90
24772;DHT22;12870;52.274;9.754;2023-03-02T00:42:59;-1.20;99.90
24772;DHT22;12870;52.274;9.754;2023-03-02T00:45:25;-1.20;99.90
24772;DHT22;12870;52.274;9.754;2023-03-02T00:47:51;-1.10;99.90
24772;DHT22;12870;52.274;9.754;2023-03-02T00:50:16;-1.20;99.90
24772;DHT22;12870;52.274;9.754;2023-03-02T00:52:42;-1.20;99.90
24772;DHT22;12870;52.274;9.754;2023-03-02T00:55:08;-1.20;99.90
24772;DHT22;12870;52.274;9.754;2023-03-02T00:57:34;-1.30;99.90
24772;DHT22;12870;52.274;9.754;2023-03-02T01:00:00;-1.30;99.90
24772;DHT22;12870;52.274;9.754;2023-03-02T01:02:26;-1.30;99.90
24772;DHT22;12870;52.274;9.754;2023-03-02T01:04:52;-1.40;99.90
24772;DHT22;12870;52.274;9.754;2023-03-02T01:07:19;-1.40;99.90
24772;DHT22;12870;52.274;9.754;2023-03-02T01:09:50;-1.40;99.90
24772;DHT22;12870;52.274;9.754;2023-03-02T01:12:16;-1.50;99.90
24772;DHT22;12870;52.274;9.754;2023-03-02T01:14:45;-1.50;99.90
24772;DHT22;12870;52.274;9.754;2023-03-02T01:17:11;-1.50;99.90
24772;DHT22;12870;52.274;9.754;2023-03-02T01:19:37;-1.50;99.90
24772;DHT22;12870;52.274;9.754;2023-03-02T01:22:03;-1.60;99.90
24772;DHT22;12870;52.274;9.754;2023-03-02T01:24:29;-1.60;99.90
24772;DHT22;12870;52.274;9.754;2023-03-02T01:26:56;-1.60;99.90
24772;DHT22;12870;52.274;9.754;2023-03-02T01:29:22;-1.60;99.90
24772;DHT22;12870;52.274;9.754;2023-03-02T01:31:48;-1.70;99.90
24772;DHT22;12870;52.274;9.754;2023-03-02T01:34:13;-1.70;99.90
24772;DHT22;12870;52.274;9.754;2023-03-02T01:36:39;-1.70;99.90
24772;DHT22;12870;52.274;9.754;2023-03-02T01:39:05;-1.70;99.90
24772;DHT22;12870;52.274;9.754;2023-03-02T01:41:31;-1.70;99.90
24772;DHT22;12870;52.274;9.754;2023-03-02T01:43:57;-1.70;99.90
24772;DHT22;12870;52.274;9.754;2023-03-02T01:46:24;-1.60;99.90
24772;DHT22;12870;52.274;9.754;2023-03-02T01:51:19;-1.60;99.90
24772;DHT22;12870;52.274;9.754;2023-03-02T01:53:47;-1.70;99.90
24772;DHT22;12870;52.274;9.754;2023-03-02T01:56:17;-1.70;99.90
24772;DHT22;12870;52.274;9.754;2023-03-02T01:58:43;-1.70;99.90
24772;DHT22;12870;52.274;9.754;2023-03-02T02:01:11;-1.70;99.90
24772;DHT22;12870;52.274;9.754;2023-03-02T02:03:45;-1.80;99.90
24772;DHT22;12870;52.274;9.754;2023-03-02T02:06:21;-1.80;99.90
24772;DHT22;12870;52.274;9.754;2023-03-02T02:08:48;-1.80;99.90
24772;DHT22;12870;52.274;9.754;2023-03-02T02:11:15;-1.80;99.90
24772;DHT22;12870;52.274;9.754;2023-03-02T02:13:41;-1.80;99.90
24772;DHT22;12870;52.274;9.754;2023-03-02T02:16:08;-1.80;99.90
24772;DHT22;12870;52.274;9.754;2023-03-02T02:18:36;-1.90;99.90
24772;DHT22;12870;52.274;9.754;2023-03-02T02:21:02;-1.90;99.90
24772;DHT22;12870;52.274;9.754;2023-03-02T02:23:43;-2.00;99.90
24772;DHT22;12870;52.274;9.754;2023-03-02T02:26:26;-2.00;99.90
24772;DHT22;12870;52.274;9.754;2023-03-02T02:28:57;-2.00;99.90
24772;DHT22;12870;52.274;9.754;2023-03-02T02:34:29;-2.00;99.90
24772;DHT22;12870;52.274;9.754;2023-03-02T02:37:10;-2.00;99.90
24772;DHT22;12870;52.274;9.754;2023-03-02T02:39:39;-2.00;99.90
24772;DHT22;12870;52.274;9.754;2023-03-02T02:42:11;-2.00;99.90
24772;DHT22;12870;52.274;9.754;2023-03-02T02:44:39;-2.00;99.90
24772;DHT22;12870;52.274;9.754;2023-03-02T02:47:24;-2.00;99.90
24772;DHT22;12870;52.274;9.754;2023-03-02T02:49:52;-2.10;99.90
24772;DHT22;12870;52.274;9.754;2023-03-02T02:52:20;-2.00;99.90
24772;DHT22;12870;52.274;9.754;2023-03-02T02:54:49;-2.00;99.90
24772;DHT22;12870;52.274;9.754;2023-03-02T02:57:16;-2.00;99.90
24772;DHT22;12870;52.274;9.754;2023-03-02T02:59:55;-2.00;99.90
24772;DHT22;12870;52.274;9.754;2023-03-02T03:02:25;-2.00;99.90
24772;DHT22;12870;52.274;9.754;2023-03-02T03:04:51;-1.90;99.90
24772;DHT22;12870;52.274;9.754;2023-03-02T03:07:28;-1.90;99.90
24772;DHT22;12870;52.274;9.754;2023-03-02T03:12:28;-1.80;99.90
24772;DHT22;12870;52.274;9.754;2023-03-02T03:14:56;-1.70;99.90
24772;DHT22;12870;52.274;9.754;2023-03-02T03:17:23;-1.60;99.90
24772;DHT22;12870;52.274;9.754;2023-03-02T03:19:49;-1.50;99.90
24772;DHT22;12870;52.274;9.754;2023-03-02T03:22:15;-1.40;99.90
24772;DHT22;12870;52.274;9.754;2023-03-02T03:24:42;-1.30;99.90
24772;DHT22;12870;52.274;9.754;2023-03-02T03:27:10;-1.30;99.90
24772;DHT22;12870;52.274;9.754;2023-03-02T03:29:38;-1.20;99.90
24772;DHT22;12870;52.274;9.754;2023-03-02T03:32:04;-1.10;99.90
24772;DHT22;12870;52.274;9.754;2023-03-02T03:34:31;-1.40;99.90
24772;DHT22;12870;52.274;9.754;2023-03-02T03:36:58;-1.30;99.90
24772;DHT22;12870;52.274;9.754;2023-03-02T03:39:28;-1.20;99.90
24772;DHT22;12870;52.274;9.754;2023-03-02T03:41:54;-1.50;99.90
24772;DHT22;12870;52.274;9.754;2023-03-02T03:44:21;-1.40;99.90
24772;DHT22;12870;52.274;9.754;2023-03-02T03:46:46;-1.40;99.90
24772;DHT22;12870;52.274;9.754;2023-03-02T03:49:12;-1.40;99.90
24772;DHT22;12870;52.274;9.754;2023-03-02T03:51:38;-1.50;99.90
24772;DHT22;12870;52.274;9.754;2023-03-02T03:54:06;-1.60;99.90
24772;DHT22;12870;52.274;9.754;2023-03-02T03:56:39;-1.60;99.90
24772;DHT22;12870;52.274;9.754;2023-03-02T03:59:08;-1.70;99.90
24772;DHT22;12870;52.274;9.754;2023-03-02T04:01:37;-1.70;99.90
24772;DHT22;12870;52.274;9.754;2023-03-02T04:04:05;-1.70;99.90
24772;DHT22;12870;52.274;9.754;2023-03-02T04:06:31;-1.70;99.90
24772;DHT22;12870;52.274;9.754;2023-03-02T04:08:57;-1.70;99.90
24772;DHT22;12870;52.274;9.754;2023-03-02T04:11:27;-1.70;99.90
24772;DHT22;12870;52.274;9.754;2023-03-02T04:13:52;-1.70;99.90
24772;DHT22;12870;52.274;9.754;2023-03-02T04:16:18;-1.70;99.90
24772;DHT22;12870;52.274;9.754;2023-03-02T04:18:44;-1.70;99.90
24772;DHT22;12870;52.274;9.754;2023-03-02T04:21:10;-1.60;99.90
24772;DHT22;12870;52.274;9.754;2023-03-02T04:23:35;-1.50;99.90
24772;DHT22;12870;52.274;9.754;2023-03-02T04:26:01;-1.40;99.90
24772;DHT22;12870;52.274;9.754;2023-03-02T04:28:30;-1.20;99.90
24772;DHT22;12870;52.274;9.754;2023-03-02T04:30:56;-1.10;99.90
24772;DHT22;12870;52.274;9.754;2023-03-02T04:33:21;-1.00;99.90
24772;DHT22;12870;52.274;9.754;2023-03-02T04:35:47;-0.90;99.90
24772;DHT22;12870;52.274;9.754;2023-03-02T04:38:13;-0.80;99.90
24772;DHT22;12870;52.274;9.754;2023-03-02T04:40:39;-0.70;99.90
24772;DHT22;12870;52.274;9.754;2023-03-02T04:43:04;-0.70;99.90
24772;DHT22;12870;52.274;9.754;2023-03-02T04:45:30;-0.60;99.90
24772;DHT22;12870;52.274;9.754;2023-03-02T04:47:56;-0.50;99.90
24772;DHT22;12870;52.274;9.754;2023-03-02T04:50:21;-0.50;99.90
24772;DHT22;12870;52.274;9.754;2023-03-02T04:52:47;-0.40;99.90
24772;DHT22;12870;52.274;9.754;2023-03-02T04:55:19;-0.40;99.90
24772;DHT22;12870;52.274;9.754;2023-03-02T04:57:45;-0.30;99.90
24772;DHT22;12870;52.274;9.754;2023-03-02T05:00:11;-0.30;99.90
24772;DHT22;12870;52.274;9.754;2023-03-02T05:02:38;-0.30;99.90
24772;DHT22;12870;52.274;9.754;2023-03-02T05:05:04;-0.20;99.90
24772;DHT22;12870;52.274;9.754;2023-03-02T05:07:30;-0.20;99.90
24772;DHT22;12870;52.274;9.754;2023-03-02T05:09:56;-0.20;99.90
24772;DHT22;12870;52.274;9.754;2023-03-02T05:12:22;-0.20;99.90
24772;DHT22;12870;52.274;9.754;2023-03-02T05:14:47;-0.10;99.90
24772;DHT22;12870;52.274;9.754;2023-03-02T05:17:13;-0.10;99.90
24772;DHT22;12870;52.274;9.754;2023-03-02T05:19:39;0.00;99.90
24772;DHT22;12870;52.274;9.754;2023-03-02T05:22:04;0.00;99.90
24772;DHT22;12870;52.274;9.754;2023-03-02T05:24:30;0.00;99.90
24772;DHT22;12870;52.274;9.754;2023-03-02T05:26:56;0.10;99.90
24772;DHT22;12870;52.274;9.754;2023-03-02T05:29:21;0.10;99.90
24772;DHT22;12870;52.274;9.754;2023-03-02T05:31:48;0.10;99.90
24772;DHT22;12870;52.274;9.754;2023-03-02T05:34:15;0.10;99.90
24772;DHT22;12870;52.274;9.754;2023-03-02T05:36:42;0.10;99.90
24772;DHT22;12870;52.274;9.754;2023-03-02T05:39:09;0.20;99.90
24772;DHT22;12870;52.274;9.754;2023-03-02T05:41:36;0.20;99.90
24772;DHT22;12870;52.274;9.754;2023-03-02T05:44:02;0.20;99.90
24772;DHT22;12870;52.274;9.754;2023-03-02T05:46:28;0.20;99.90
24772;DHT22;12870;52.274;9.754;2023-03-02T05:48:53;0.30;99.90
24772;DHT22;12870;52.274;9.754;2023-03-02T05:51:19;0.30;99.90
24772;DHT22;12870;52.274;9.754;2023-03-02T05:53:45;0.30;99.90
24772;DHT22;12870;52.274;9.754;2023-03-02T05:56:11;0.30;99.90
24772;DHT22;12870;52.274;9.754;2023-03-02T05:58:36;0.30;99.90
24772;DHT22;12870;52.274;9.754;2023-03-02T06:01:07;0.30;99.90
24772;DHT22;12870;52.274;9.754;2023-03-02T06:03:34;0.40;99.90
24772;DHT22;12870;52.274;9.754;2023-03-02T06:06:00;0.40;99.90
24772;DHT22;12870;52.274;9.754;2023-03-02T06:08:25;0.40;99.90
24772;DHT22;12870;52.274;9.754;2023-03-02T06:10:54;0.40;99.90
24772;DHT22;12870;52.274;9.754;2023-03-02T06:13:20;0.40;99.90
24772;DHT22;12870;52.274;9.754;2023-03-02T06:15:46;0.50;99.90
24772;DHT22;12870;52.274;9.754;2023-03-02T06:18:11;0.50;99.90
24772;DHT22;12870;52.274;9.754;2023-03-02T06:20:38;0.50;99.90
24772;DHT22;12870;52.274;9.754;2023-03-02T06:23:04;0.50;99.90
24772;DHT22;12870;52.274;9.754;2023-03-02T06:25:30;0.50;99.90
24772;DHT22;12870;52.274;9.754;2023-03-02T06:27:56;0.60;99.90
24772;DHT22;12870;52.274;9.754;2023-03-02T06:30:23;0.60;99.90
24772;DHT22;12870;52.274;9.754;2023-03-02T06:32:49;0.60;99.90
24772;DHT22;12870;52.274;9.754;2023-03-02T06:35:15;0.60;99.90
24772;DHT22;12870;52.274;9.754;2023-03-02T06:37:41;0.60;99.90
24772;DHT22;12870;52.274;9.754;2023-03-02T06:40:08;0.60;99.90
24772;DHT22;12870;52.274;9.754;2023-03-02T06:42:38;0.60;99.90
24772;DHT22;12870;52.274;9.754;2023-03-02T06:45:05;0.70;99.90
24772;DHT22;12870;52.274;9.754;2023-03-02T06:47:31;0.70;99.90
24772;DHT22;12870;52.274;9.754;2023-03-02T06:49:58;0.70;99.90
24772;DHT22;12870;52.274;9.754;2023-03-02T06:52:24;0.70;99.90
24772;DHT22;12870;52.274;9.754;2023-03-02T06:54:50;0.70;99.90
24772;DHT22;12870;52.274;9.754;2023-03-02T06:57:16;0.70;99.90
24772;DHT22;12870;52.274;9.754;2023-03-02T06:59:41;0.70;99.90
24772;DHT22;12870;52.274;9.754;2023-03-02T07:02:09;0.70;99.90
24772;DHT22;12870;52.274;9.754;2023-03-02T07:04:35;0.80;99.90
24772;DHT22;12870;52.274;9.754;2023-03-02T07:07:00;0.80;99.90
24772;DHT22;12870;52.274;9.754;2023-03-02T07:09:26;0.80;99.90
24772;DHT22;12870;52.274;9.754;2023-03-02T07:11:51;0.80;99.90
24772;DHT22;12870;52.274;9.754;2023-03-02T07:14:17;0.80;99.90
24772;DHT22;12870;52.274;9.754;2023-03-02T07:16:43;0.90;99.90
24772;DHT22;12870;52.274;9.754;2023-03-02T07:19:12;0.90;99.90
24772;DHT22;12870;52.274;9.754;2023-03-02T07:21:38;0.90;99.90
24772;DHT22;12870;52.274;9.754;2023-03-02T07:24:05;1.00;99.90
24772;DHT22;12870;52.274;9.754;2023-03-02T07:26:30;1.10;99.90
24772;DHT22;12870;52.274;9.754;2023-03-02T07:28:56;1.10;99.90
24772;DHT22;12870;52.274;9.754;2023-03-02T07:31:24;1.20;99.90
24772;DHT22;12870;52.274;9.754;2023-03-02T07:33:50;1.20;99.90
24772;DHT22;12870;52.274;9.754;2023-03-02T07:36:16;1.20;99.90
24772;DHT22;12870;52.274;9.754;2023-03-02T07:38:41;1.20;99.90
24772;DHT22;12870;52.274;9.754;2023-03-02T07:41:08;1.20;99.90
24772;DHT22;12870;52.274;9.754;2023-03-02T07:43:34;1.30;99.90
24772;DHT22;12870;52.274;9.754;2023-03-02T07:46:02;1.20;99.90
24772;DHT22;12870;52.274;9.754;2023-03-02T07:48:29;1.30;99.90
24772;DHT22;12870;52.274;9.754;2023-03-02T07:51:02;1.40;99.90
24772;DHT22;12870;52.274;9.754;2023-03-02T07:53:29;1.40;99.90
24772;DHT22;12870;52.274;9.754;2023-03-02T07:55:55;1.40;99.90
24772;DHT22;12870;52.274;9.754;2023-03-02T07:58:21;1.40;99.90
24772;DHT22;12870;52.274;9.754;2023-03-02T08:00:47;1.40;99.90
24772;DHT22;12870;52.274;9.754;2023-03-02T08:03:13;1.40;99.90
24772;DHT22;12870;52.274;9.754;2023-03-02T08:05:39;1.40;99.90
24772;DHT22;12870;52.274;9.754;2023-03-02T08:08:05;1.40;99.90
24772;DHT22;12870;52.274;9.754;2023-03-02T08:10:33;1.50;99.90
24772;DHT22;12870;52.274;9.754;2023-03-02T08:12:59;1.50;99.90
24772;DHT22;12870;52.274;9.754;2023-03-02T08:15:24;1.50;99.90
24772;DHT22;12870;52.274;9.754;2023-03-02T08:17:50;1.50;99.90
24772;DHT22;12870;52.274;9.754;2023-03-02T08:20:17;1.60;99.90
24772;DHT22;12870;52.274;9.754;2023-03-02T08:22:42;1.60;99.90
24772;DHT22;12870;52.274;9.754;2023-03-02T08:25:08;1.60;99.90
24772;DHT22;12870;52.274;9.754;2023-03-02T08:27:34;1.70;99.90
24772;DHT22;12870;52.274;9.754;2023-03-02T08:30:00;1.70;99.90
24772;DHT22;12870;52.274;9.754;2023-03-02T08:32:25;1.70;99.90
24772;DHT22;12870;52.274;9.754;2023-03-02T08:34:51;1.70;99.90
24772;DHT22;12870;52.274;9.754;2023-03-02T08:37:18;1.70;99.90
24772;DHT22;12870;52.274;9.754;2023-03-02T08:39:44;1.80;99.90
24772;DHT22;12870;52.274;9.754;2023-03-02T08:42:09;1.80;99.90
24772;DHT22;12870;52.274;9.754;2023-03-02T08:44:35;1.90;99.90
24772;DHT22;12870;52.274;9.754;2023-03-02T08:47:00;1.90;99.90
24772;DHT22;12870;52.274;9.754;2023-03-02T08:49:26;1.90;99.90
24772;DHT22;12870;52.274;9.754;2023-03-02T08:51:52;2.00;99.90
24772;DHT22;12870;52.274;9.754;2023-03-02T08:54:21;2.00;99.90
24772;DHT22;12870;52.274;9.754;2023-03-02T08:56:47;2.10;99.90
24772;DHT22;12870;52.274;9.754;2023-03-02T08:59:13;2.10;99.90
24772;DHT22;12870;52.274;9.754;2023-03-02T09:01:39;2.20;99.90
24772;DHT22;12870;52.274;9.754;2023-03-02T09:04:07;2.20;99.90
24772;DHT22;12870;52.274;9.754;2023-03-02T09:06:35;2.20;99.90
24772;DHT22;12870;52.274;9.754;2023-03-02T09:09:02;2.20;99.90
24772;DHT22;12870;52.274;9.754;2023-03-02T09:11:27;2.20;99.90
24772;DHT22;12870;52.274;9.754;2023-03-02T09:13:53;2.30;99.90
24772;DHT22;12870;52.274;9.754;2023-03-02T09:16:21;2.20;99.90
24772;DHT22;12870;52.274;9.754;2023-03-02T09:18:48;2.30;99.90
24772;DHT22;12870;52.274;9.754;2023-03-02T09:21:14;2.30;99.90
24772;DHT22;12870;52.274;9.754;2023-03-02T09:23:40;2.40;99.90
24772;DHT22;12870;52.274;9.754;2023-03-02T09:26:06;2.40;99.90
24772;DHT22;12870;52.274;9.754;2023-03-02T09:28:31;2.30;99.90
24772;DHT22;12870;52.274;9.754;2023-03-02T09:30:59;2.30;99.90
24772;DHT22;12870;52.274;9.754;2023-03-02T09:33:25;2.30;99.90
24772;DHT22;12870;52.274;9.754;2023-03-02T09:35:51;2.40;99.90
24772;DHT22;12870;52.274;9.754;2023-03-02T09:38:18;2.50;99.90
24772;DHT22;12870;52.274;9.754;2023-03-02T09:46:26;2.70;99.90
24772;DHT22;12870;52.274;9.754;2023-03-02T09:51:44;2.90;99.90
24772;DHT22;12870;52.274;9.754;2023-03-02T09:54:14;2.90;99.90
24772;DHT22;12870;52.274;9.754;2023-03-02T09:56:47;2.90;99.90
24772;DHT22;12870;52.274;9.754;2023-03-02T10:01:50;2.90;99.90
24772;DHT22;12870;52.274;9.754;2023-03-02T10:04:24;2.90;99.90
24772;DHT22;12870;52.274;9.754;2023-03-02T10:06:55;2.90;99.90
24772;DHT22;12870;52.274;9.754;2023-03-02T10:09:22;3.00;99.90
24772;DHT22;12870;52.274;9.754;2023-03-02T10:14:25;3.10;99.90
24772;DHT22;12870;52.274;9.754;2023-03-02T10:17:02;3.20;99.90
24772;DHT22;12870;52.274;9.754;2023-03-02T10:19:42;3.30;99.90
24772;DHT22;12870;52.274;9.754;2023-03-02T10:25:16;3.40;99.90
24772;DHT22;12870;52.274;9.754;2023-03-02T10:27:50;3.40;99.90
24772;DHT22;12870;52.274;9.754;2023-03-02T10:30:30;3.50;99.90
24772;DHT22;12870;52.274;9.754;2023-03-02T10:33:07;3.50;99.90
24772;DHT22;12870;52.274;9.754;2023-03-02T10:35:36;3.60;99.90
24772;DHT22;12870;52.274;9.754;2023-03-02T10:38:22;3.50;99.90
24772;DHT22;12870;52.274;9.754;2023-03-02T10:40:59;3.60;99.90
24772;DHT22;12870;52.274;9.754;2023-03-02T10:46:04;3.70;99.90
24772;DHT22;12870;52.274;9.754;2023-03-02T10:48:52;3.70;99.90
24772;DHT22;12870;52.274;9.754;2023-03-02T10:51:28;3.80;99.90
24772;DHT22;12870;52.274;9.754;2023-03-02T10:54:11;3.80;99.90
24772;DHT22;12870;52.274;9.754;2023-03-02T10:56:38;3.80;99.90
24772;DHT22;12870;52.274;9.754;2023-03-02T11:02:02;3.90;99.90
24772;DHT22;12870;52.274;9.754;2023-03-02T11:04:30;3.90;99.90
24772;DHT22;12870;52.274;9.754;2023-03-02T11:07:07;3.90;99.90
24772;DHT22;12870;52.274;9.754;2023-03-02T11:09:33;3.90;99.90
24772;DHT22;12870;52.274;9.754;2023-03-02T11:11:59;4.00;99.90
24772;DHT22;12870;52.274;9.754;2023-03-02T11:14:25;4.00;99.90
24772;DHT22;12870;52.274;9.754;2023-03-02T11:16:51;4.20;99.90
24772;DHT22;12870;52.274;9.754;2023-03-02T11:19:30;4.30;99.90
24772;DHT22;12870;52.274;9.754;2023-03-02T11:22:05;4.50;99.90
24772;DHT22;12870;52.274;9.754;2023-03-02T11:24:52;4.50;99.90
24772;DHT22;12870;52.274;9.754;2023-03-02T11:27:29;4.60;99.90
24772;DHT22;12870;52.274;9.754;2023-03-02T11:29:59;4.60;99.90
24772;DHT22;12870;52.274;9.754;2023-03-02T11:32:51;4.70;99.90
24772;DHT22;12870;52.274;9.754;2023-03-02T11:35:33;4.70;99.90
24772;DHT22;12870;52.274;9.754;2023-03-02T11:38:25;4.80;99.90
24772;DHT22;12870;52.274;9.754;2023-03-02T11:41:00;4.90;99.90
24772;DHT22;12870;52.274;9.754;2023-03-02T11:43:28;4.90;99.90
24772;DHT22;12870;52.274;9.754;2023-03-02T11:46:03;5.00;99.90
24772;DHT22;12870;52.274;9.754;2023-03-02T11:48:37;5.10;99.90
24772;DHT22;12870;52.274;9.754;2023-03-02T11:51:12;5.10;99.90
24772;DHT22;12870;52.274;9.754;2023-03-02T11:53:49;5.30;99.90
24772;DHT22;12870;52.274;9.754;2023-03-02T11:56:16;5.40;99.90
24772;DHT22;12870;52.274;9.754;2023-03-02T11:58:42;5.30;99.90
24772;DHT22;12870;52.274;9.754;2023-03-02T12:01:17;5.30;99.90
24772;DHT22;12870;52.274;9.754;2023-03-02T12:03:44;5.30;99.90
24772;DHT22;12870;52.274;9.754;2023-03-02T12:08:44;5.40;99.90
24772;DHT22;12870;52.274;9.754;2023-03-02T12:13:58;5.60;99.90
24772;DHT22;12870;52.274;9.754;2023-03-02T12:16:42;5.80;99.90
24772;DHT22;12870;52.274;9.754;2023-03-02T12:22:08;6.00;99.90
24772;DHT22;12870;52.274;9.754;2023-03-02T12:24:39;6.20;99.90
24772;DHT22;12870;52.274;9.754;2023-03-02T12:32:22;6.30;99.90
24772;DHT22;12870;52.274;9.754;2023-03-02T12:37:35;6.30;99.90
24772;DHT22;12870;52.274;9.754;2023-03-02T12:51:22;6.20;99.90
24772;DHT22;12870;52.274;9.754;2023-03-02T12:53:49;6.40;99.90
24772;DHT22;12870;52.274;9.754;2023-03-02T12:56:25;6.70;99.90
24772;DHT22;12870;52.274;9.754;2023-03-02T12:58:52;6.90;99.90
24772;DHT22;12870;52.274;9.754;2023-03-02T13:01:26;7.10;99.90
24772;DHT22;12870;52.274;9.754;2023-03-02T13:03:53;7.10;99.90
24772;DHT22;12870;52.274;9.754;2023-03-02T13:06:20;7.10;99.90
24772;DHT22;12870;52.274;9.754;2023-03-02T13:08:49;7.20;99.90
24772;DHT22;12870;52.274;9.754;2023-03-02T13:13:55;7.70;99.90
24772;DHT22;12870;52.274;9.754;2023-03-02T13:16:25;7.70;99.90
24772;DHT22;12870;52.274;9.754;2023-03-02T13:18:57;7.70;99.90
24772;DHT22;12870;52.274;9.754;2023-03-02T13:21:36;7.60;99.90
24772;DHT22;12870;52.274;9.754;2023-03-02T13:24:18;7.50;99.90
24772;DHT22;12870;52.274;9.754;2023-03-02T13:26:56;7.40;99.90
24772;DHT22;12870;52.274;9.754;2023-03-02T13:29:26;7.30;99.90
24772;DHT22;12870;52.274;9.754;2023-03-02T13:31:53;7.10;99.90
24772;DHT22;12870;52.274;9.754;2023-03-02T13:34:24;6.90;99.90
24772;DHT22;12870;52.274;9.754;2023-03-02T13:36:50;6.80;99.90
24772;DHT22;12870;52.274;9.754;2023-03-02T13:39:24;6.70;99.90
24772;DHT22;12870;52.274;9.754;2023-03-02T13:41:55;6.50;99.90
24772;DHT22;12870;52.274;9.754;2023-03-02T13:44:29;6.30;99.90
24772;DHT22;12870;52.274;9.754;2023-03-02T13:46:55;6.30;99.90
24772;DHT22;12870;52.274;9.754;2023-03-02T13:49:39;6.20;99.90
24772;DHT22;12870;52.274;9.754;2023-03-02T13:52:12;6.20;99.90
24772;DHT22;12870;52.274;9.754;2023-03-02T13:54:42;6.20;99.90
24772;DHT22;12870;52.274;9.754;2023-03-02T13:57:17;6.30;99.90
24772;DHT22;12870;52.274;9.754;2023-03-02T13:59:45;6.40;99.90
24772;DHT22;12870;52.274;9.754;2023-03-02T14:02:26;6.90;99.90
24772;DHT22;12870;52.274;9.754;2023-03-02T14:04:53;7.50;99.90
24772;DHT22;12870;52.274;9.754;2023-03-02T14:07:19;8.10;99.90
24772;DHT22;12870;52.274;9.754;2023-03-02T14:09:45;8.30;99.90
24772;DHT22;12870;52.274;9.754;2023-03-02T14:12:22;8.30;99.90
24772;DHT22;12870;52.274;9.754;2023-03-02T14:14:49;8.00;99.90
24772;DHT22;12870;52.274;9.754;2023-03-02T14:17:18;7.70;99.90
24772;DHT22;12870;52.274;9.754;2023-03-02T14:19:45;7.40;99.90
24772;DHT22;12870;52.274;9.754;2023-03-02T14:22:18;7.20;99.90
24772;DHT22;12870;52.274;9.754;2023-03-02T14:24:44;7.10;99.90
24772;DHT22;12870;52.274;9.754;2023-03-02T14:27:13;6.90;99.90
24772;DHT22;12870;52.274;9.754;2023-03-02T14:29:39;6.80;99.90
24772;DHT22;12870;52.274;9.754;2023-03-02T14:32:05;6.60;99.90
24772;DHT22;12870;52.274;9.754;2023-03-02T14:34:32;6.40;99.90
24772;DHT22;12870;52.274;9.754;2023-03-02T14:37:01;6.20;99.90
24772;DHT22;12870;52.274;9.754;2023-03-02T14:39:39;6.10;99.90
24772;DHT22;12870;52.274;9.754;2023-03-02T14:42:10;5.90;99.90
24772;DHT22;12870;52.274;9.754;2023-03-02T14:44:36;5.80;99.90
24772;DHT22;12870;52.274;9.754;2023-03-02T14:47:02;5.70;99.90
24772;DHT22;12870;52.274;9.754;2023-03-02T14:49:28;5.60;99.90
24772;DHT22;12870;52.274;9.754;2023-03-02T14:54:35;5.50;99.90
24772;DHT22;12870;52.274;9.754;2023-03-02T14:57:02;5.50;99.90
24772;DHT22;12870;52.274;9.754;2023-03-02T14:59:30;5.50;99.90
24772;DHT22;12870;52.274;9.754;2023-03-02T15:01:56;5.40;99.90
24772;DHT22;12870;52.274;9.754;2023-03-02T15:04:21;5.30;99.90
24772;DHT22;12870;52.274;9.754;2023-03-02T15:06:47;5.30;99.90
24772;DHT22;12870;52.274;9.754;2023-03-02T15:09:13;5.20;99.90
24772;DHT22;12870;52.274;9.754;2023-03-02T15:11:38;5.10;99.90
24772;DHT22;12870;52.274;9.754;2023-03-02T15:14:04;5.10;99.90
24772;DHT22;12870;52.274;9.754;2023-03-02T15:16:30;5.00;99.90
24772;DHT22;12870;52.274;9.754;2023-03-02T15:18:55;4.90;99.90
24772;DHT22;12870;52.274;9.754;2023-03-02T15:21:23;4.90;99.90
24772;DHT22;12870;52.274;9.754;2023-03-02T15:23:49;4.90;99.90
24772;DHT22;12870;52.274;9.754;2023-03-02T15:26:15;4.80;99.90
24772;DHT22;12870;52.274;9.754;2023-03-02T15:28:41;4.90;99.90
24772;DHT22;12870;52.274;9.754;2023-03-02T15:31:12;4.80;99.90
24772;DHT22;12870;52.274;9.754;2023-03-02T15:33:39;4.70;99.90
24772;DHT22;12870;52.274;9.754;2023-03-02T15:36:05;4.70;99.90
24772;DHT22;12870;52.274;9.754;2023-03-02T15:38:32;4.60;99.90
24772;DHT22;12870;52.274;9.754;2023-03-02T15:41:05;4.60;99.90
24772;DHT22;12870;52.274;9.754;2023-03-02T15:43:32;4.60;99.90
24772;DHT22;12870;52.274;9.754;2023-03-02T15:45:58;4.50;99.90
24772;DHT22;12870;52.274;9.754;2023-03-02T15:48:26;4.50;99.90
24772;DHT22;12870;52.274;9.754;2023-03-02T15:50:59;4.40;99.90
24772;DHT22;12870;52.274;9.754;2023-03-02T15:53:26;4.40;99.90
24772;DHT22;12870;52.274;9.754;2023-03-02T15:55:52;4.30;99.90
24772;DHT22;12870;52.274;9.754;2023-03-02T15:58:18;4.30;99.90
24772;DHT22;12870;52.274;9.754;2023-03-02T16:00:44;4.20;99.90
24772;DHT22;12870;52.274;9.754;2023-03-02T16:03:10;4.20;99.90
24772;DHT22;12870;52.274;9.754;2023-03-02T16:05:37;4.20;99.90
24772;DHT22;12870;52.274;9.754;2023-03-02T16:08:03;4.20;99.90
24772;DHT22;12870;52.274;9.754;2023-03-02T16:10:28;4.20;99.90
24772;DHT22;12870;52.274;9.754;2023-03-02T16:13:00;4.20;99.90
24772;DHT22;12870;52.274;9.754;2023-03-02T16:15:26;4.10;99.90
24772;DHT22;12870;52.274;9.754;2023-03-02T16:17:52;4.00;99.90
24772;DHT22;12870;52.274;9.754;2023-03-02T16:20:18;4.00;99.90
24772;DHT22;12870;52.274;9.754;2023-03-02T16:22:43;4.00;99.90
24772;DHT22;12870;52.274;9.754;2023-03-02T16:25:09;3.90;99.90
24772;DHT22;12870;52.274;9.754;2023-03-02T16:27:35;3.90;99.90
24772;DHT22;12870;52.274;9.754;2023-03-02T16:30:01;3.80;99.90
24772;DHT22;12870;52.274;9.754;2023-03-02T16:32:26;3.80;99.90
24772;DHT22;12870;52.274;9.754;2023-03-02T16:34:55;3.80;99.90
24772;DHT22;12870;52.274;9.754;2023-03-02T16:37:21;3.80;99.90
24772;DHT22;12870;52.274;9.754;2023-03-02T16:39:46;3.80;99.90
24772;DHT22;12870;52.274;9.754;2023-03-02T16:42:12;3.80;99.90
24772;DHT22;12870;52.274;9.754;2023-03-02T16:44:38;3.70;99.90
24772;DHT22;12870;52.274;9.754;2023-03-02T16:47:04;3.80;99.90
24772;DHT22;12870;52.274;9.754;2023-03-02T16:49:29;3.70;99.90